Aérodrome :
LOGIN :

S'inscrire | Disclaimer

   EN    FR    IT 

 










Légende :    VFR   VFR Marginal   IFR   IFR Intensif   IFR Très Intensif
Visi : 
Plafond : 
>= 8 km
>= 3000ft
5 à 8 km
1000 à 3000 ft
1500m à 5 km
500 à 1000 ft
800 à 1500m
200 à 500 ft
< 800m
< 200 ft
Symboles :   Orages  Brouillard  Fortes neiges  Fortes précipitations  Vent > 20 kt
SIGMETs :   Divers  Orages  Givrage  Turbulence  Onde Orograph.  Cendres Volcan.






- Altitude de l'aérodrome : 326 ft
- Code IATA : LCG


LECO - A Coruna

DERNIER METAR :
  • 161130Z 01007KT 300V060 9999 SCT030 21/14 Q1021 NOSIG

METARs EXPIRÉS :
  • 161100Z VRB06KT 9999 SCT029 SCT045 21/15 Q1021 NOSIG
  • 161030Z 01005KT 320V060 9999 FEW025 BKN031 19/14 Q1021 NOSIG
  • 161000Z 03004KT 300V110 9999 SCT025 BKN031 20/14 Q1021 NOSIG
  • 160930Z 34006KT 290V030 9999 SCT024 BKN036 18/14 Q1021 NOSIG
  • 160900Z VRB02KT 9999 BKN023 19/13 Q1020 NOSIG
  • 160830Z VRB01KT 9999 FEW020 BKN027 20/14 Q1020 NOSIG
  • 160800Z 16004KT 110V200 9999 FEW015 BKN026 18/14 Q1020 NOSIG
  • 160730Z 17003KT 130V210 9999 FEW015 SCT020 17/15 Q1020 NOSIG
  • 160700Z 18003KT 9999 FEW013 SCT020 16/14 Q1020 NOSIG

TAF TAF LECO
Valide du 16 à 09h jusqu'au 17 à 09h UTC


160800Z 1609/1709 36010KT 9999 FEW015 BKN020 TX21/1613Z TN13/1705Z
TEMPO 1609/1612 VRB03KT
BECMG 1620/1622 VRB03KT
PROB40
TEMPO 1700/1708 3000 BCFG
PROB30
TEMPO 1703/1708 0350 FG VV001



MET'MAP, la Météo Aéronautique d'un coup d'oeil ! - Copyright ORBIFLY Décembre 2007 - Disclaimer

ORBIFLY MET'MAP TEAM :

Programmation & Développement : Alexandra Zaïnal
Sur une idée originale de : Baudouin d'Aumeries
Soutien technique & logistique : Manuel Goepfert
Assistance : Marc-Olivier Méhu




SOURCES & CREDITS :

   NOAA